Time;durP1;ratioP1;P1;durP2;ratioP2;P2;SDS_P1;SDS_P2;PMS_P1;PMS_P2;Temp;Humidity;BMP_temperature;BMP_pressure;BME280_temperature;BME280_humidity;BME280_pressure;Samples;Min_cycle;Max_cycle;Signal;HPM_P1;HPM_P2
2022/05/21 00:01:20;;;;;;;2.70;1.97;;;20.70;99.90;22.50;97020.00;;;;5035713;28;20221;-68
2022/05/21 00:04:09;;;;;;;4.03;2.20;;;20.70;99.90;22.30;97026.00;;;;5010398;28;20202;-68
2022/05/21 00:06:59;;;;;;;5.27;3.20;;;20.70;99.90;22.30;97030.00;;;;5023054;28;20208;-68
2022/05/21 00:09:48;;;;;;;5.27;2.83;;;20.70;99.90;22.30;97045.00;;;;5029077;28;20229;-69
2022/05/21 00:12:37;;;;;;;8.87;1.73;;;20.70;99.90;22.30;97057.00;;;;5029499;28;20224;-67
2022/05/21 00:15:30;;;;;;;2.47;1.77;;;20.60;99.90;22.20;97059.00;;;;5029445;28;20216;-69
2022/05/21 00:18:19;;;;;;;3.33;2.30;;;20.60;99.90;21.90;97049.00;;;;5026346;28;20248;-68
2022/05/21 00:21:08;;;;;;;2.97;1.80;;;20.60;99.90;22.00;97049.00;;;;5022794;28;20240;-69
2022/05/21 00:23:58;;;;;;;4.63;1.83;;;20.50;99.90;22.20;97065.00;;;;5016206;28;20213;-69
2022/05/21 00:26:47;;;;;;;2.07;1.83;;;20.50;99.90;22.20;97068.00;;;;5012310;28;20218;-68
2022/05/21 00:29:36;;;;;;;1.90;1.67;;;20.50;99.90;22.20;97093.00;;;;5027114;28;20227;-68
2022/05/21 00:32:25;;;;;;;4.23;2.03;;;20.50;99.90;21.90;97087.00;;;;5030488;28;20507;-67
2022/05/21 00:35:14;;;;;;;4.03;1.77;;;20.50;99.90;21.80;97067.00;;;;5019656;28;20209;-68
2022/05/21 00:38:04;;;;;;;1.50;1.30;;;20.50;99.90;21.80;97059.00;;;;5028217;28;20217;-68
2022/05/21 00:40:55;;;;;;;2.50;2.20;;;20.40;99.90;21.80;97046.00;;;;5031036;28;20240;-68
2022/05/21 00:43:47;;;;;;;3.97;1.87;;;20.40;99.90;21.70;97036.00;;;;5031530;28;20201;-68
2022/05/21 00:46:39;;;;;;;5.33;1.87;;;20.30;99.90;21.90;97030.00;;;;5031867;28;20577;-68
2022/05/21 00:49:32;;;;;;;3.17;2.03;;;20.40;99.90;21.80;97053.00;;;;5032788;28;20240;-68
2022/05/21 00:52:24;;;;;;;9.60;2.03;;;20.30;99.90;21.70;97051.00;;;;5032280;28;20224;-69
2022/05/21 00:55:19;;;;;;;4.37;1.90;;;20.30;99.90;22.00;97049.00;;;;5031650;28;20691;-70
2022/05/21 01:01:21;;;;;;;4.03;1.50;;;20.40;99.90;21.70;97062.00;;;;5017157;28;20232;-70
2022/05/21 01:04:10;;;;;;;1.80;1.63;;;20.40;99.90;21.90;97069.00;;;;5032784;28;20204;-69
2022/05/21 01:07:02;;;;;;;2.50;1.37;;;20.30;99.90;21.80;97062.00;;;;5030616;28;20216;-69
2022/05/21 01:09:54;;;;;;;2.70;2.00;;;20.30;99.90;21.80;97047.00;;;;5031342;28;20225;-69
2022/05/21 01:12:47;;;;;;;1.43;1.33;;;20.30;99.90;21.60;97043.00;;;;5032541;28;20233;-69
2022/05/21 01:15:43;;;;;;;4.47;2.40;;;20.30;99.90;21.90;97042.00;;;;5031377;28;20205;-68
2022/05/21 01:18:33;;;;;;;3.47;1.47;;;20.30;99.90;21.90;97027.00;;;;5036531;28;20673;-69
2022/05/21 01:21:21;;;;;;;4.17;1.70;;;20.20;99.90;21.80;97033.00;;;;5026606;28;20232;-70
2022/05/21 01:24:13;;;;;;;3.20;1.20;;;20.20;99.90;21.70;97021.00;;;;5025081;28;20214;-69
2022/05/21 01:27:03;;;;;;;3.73;1.90;;;20.20;99.90;22.00;97005.00;;;;5013884;28;20209;-69
2022/05/21 01:29:54;;;;;;;3.83;1.70;;;20.20;99.90;22.00;96951.00;;;;5023027;28;20225;-68
2022/05/21 01:32:46;;;;;;;4.43;1.20;;;20.30;99.90;22.00;96914.00;;;;5021530;28;20225;-68
2022/05/21 01:35:36;;;;;;;2.70;2.03;;;20.30;99.90;21.80;96931.00;;;;5030411;28;20205;-68
2022/05/21 01:38:26;;;;;;;6.43;1.83;;;20.30;99.90;21.40;96939.00;;;;5015345;28;20325;-69
2022/05/21 01:41:17;;;;;;;3.03;1.63;;;20.20;99.90;21.20;96959.00;;;;5023583;28;20228;-68
2022/05/21 01:47:15;;;;;;;5.10;1.50;;;19.90;99.90;21.10;96979.00;;;;5022536;28;20259;-69
2022/05/21 01:50:04;;;;;;;4.17;1.70;;;19.80;99.90;21.20;96980.00;;;;5030773;28;20225;-68
2022/05/21 01:52:53;;;;;;;3.50;1.63;;;19.80;99.90;21.10;96969.00;;;;5029824;28;20233;-69
2022/05/21 01:55:42;;;;;;;3.40;2.10;;;19.70;99.90;21.20;96968.00;;;;5030271;28;20212;-69
2022/05/21 01:58:33;;;;;;;4.53;1.90;;;19.60;99.90;21.10;96951.00;;;;5031167;28;20216;-69
2022/05/21 02:01:22;;;;;;;5.67;1.90;;;19.60;99.90;21.10;96952.00;;;;5029187;28;20601;-68
2022/05/21 02:04:10;;;;;;;4.13;1.90;;;19.60;99.90;21.10;96946.00;;;;5029932;28;20205;-69
2022/05/21 02:06:59;;;;;;;3.37;1.60;;;19.60;99.90;21.10;96954.00;;;;5029634;28;20212;-69
2022/05/21 02:09:48;;;;;;;3.37;1.60;;;19.60;99.90;21.10;96959.00;;;;5020799;28;20728;-68
2022/05/21 02:12:37;;;;;;;7.07;2.03;;;19.60;99.90;21.00;96937.00;;;;5016237;28;20225;-69
2022/05/21 02:15:27;;;;;;;3.17;1.57;;;19.60;99.90;21.30;96900.00;;;;5030795;28;20225;-69
2022/05/21 02:18:17;;;;;;;5.40;1.80;;;19.60;99.90;21.30;96922.00;;;;5024048;28;20209;-69
2022/05/21 02:21:07;;;;;;;2.47;2.13;;;19.60;99.90;21.20;96897.00;;;;5025952;28;20225;-68
2022/05/21 02:23:56;;;;;;;1.87;1.50;;;19.60;99.90;21.20;96889.00;;;;5021467;28;20673;-69
2022/05/21 02:26:45;;;;;;;4.83;1.73;;;19.60;99.90;21.20;96906.00;;;;5023590;28;20572;-69
2022/05/21 02:29:34;;;;;;;3.57;1.90;;;19.60;99.90;21.00;96914.00;;;;5030906;28;20217;-69
2022/05/21 02:32:24;;;;;;;1.80;1.47;;;19.50;99.90;20.90;96919.00;;;;5020935;28;20218;-69
2022/05/21 02:35:14;;;;;;;6.30;2.00;;;19.50;99.90;21.00;96893.00;;;;5027015;28;20201;-69
2022/05/21 02:41:11;;;;;;;3.80;2.17;;;19.40;99.90;20.90;96871.00;;;;5029941;28;20228;-68
2022/05/21 02:44:00;;;;;;;3.63;2.33;;;19.30;99.90;20.90;96862.00;;;;5030159;28;20209;-69
2022/05/21 02:46:49;;;;;;;6.27;2.60;;;19.30;99.90;20.70;96859.00;;;;5029715;28;20206;-69
2022/05/21 02:49:39;;;;;;;6.63;2.10;;;19.30;99.90;20.60;96851.00;;;;5029963;28;20696;-69
2022/05/21 02:52:28;;;;;;;3.33;1.70;;;19.20;99.90;20.80;96843.00;;;;5030371;28;20222;-70
2022/05/21 02:55:17;;;;;;;3.37;2.30;;;19.20;99.90;20.90;96847.00;;;;5029422;28;20212;-69
2022/05/21 02:58:07;;;;;;;3.27;1.97;;;19.20;99.90;20.90;96832.00;;;;5029144;28;20200;-70
2022/05/21 03:00:56;;;;;;;3.70;2.30;;;19.20;99.90;20.60;96827.00;;;;5029324;28;20225;-69
2022/05/21 03:03:45;;;;;;;2.03;1.80;;;19.20;99.90;20.70;96826.00;;;;5028905;28;20987;-69
2022/05/21 03:06:36;;;;;;;5.60;2.63;;;19.20;99.90;20.60;96829.00;;;;5029774;28;20216;-69
2022/05/21 03:12:31;;;;;;;3.03;2.07;;;19.10;99.90;20.80;96871.00;;;;5029583;28;20225;-68
2022/05/21 03:15:22;;;;;;;3.83;2.03;;;19.20;99.90;20.70;96881.00;;;;5030590;28;20202;-69
2022/05/21 03:18:13;;;;;;;2.87;2.07;;;19.20;99.90;20.60;96885.00;;;;5028485;28;20232;-70
2022/05/21 03:21:02;;;;;;;3.93;1.87;;;19.20;99.90;20.20;96897.00;;;;5024150;28;20225;-68
2022/05/21 03:23:52;;;;;;;3.30;2.43;;;19.20;99.90;20.50;96911.00;;;;5015175;28;20214;-69
2022/05/21 03:26:41;;;;;;;3.97;1.93;;;19.20;99.90;20.70;96924.00;;;;5025923;28;20220;-69
2022/05/21 03:29:30;;;;;;;4.40;2.40;;;19.20;99.90;20.60;96906.00;;;;5027846;28;20623;-68
2022/05/21 03:32:18;;;;;;;4.47;2.00;;;19.10;99.90;20.70;96911.00;;;;5027534;28;20232;-69
2022/05/21 03:35:09;;;;;;;2.10;1.90;;;19.20;99.90;20.80;96912.00;;;;5010509;28;20225;-69
2022/05/21 03:37:58;;;;;;;5.77;2.13;;;19.20;99.90;20.90;96924.00;;;;5011840;28;20202;-69
2022/05/21 03:40:48;;;;;;;4.10;2.30;;;19.20;99.90;21.00;96928.00;;;;5010788;28;20205;-70
2022/05/21 03:43:37;;;;;;;5.50;3.83;;;18.90;99.90;20.90;96936.00;;;;5018829;28;20209;-69
2022/05/21 03:46:26;;;;;;;6.13;3.20;;;19.30;99.90;21.00;96932.00;;;;5029903;28;20213;-69
2022/05/21 03:49:15;;;;;;;2.73;2.17;;;19.30;99.90;21.10;96924.00;;;;5030181;28;20194;-69
2022/05/21 03:52:06;;;;;;;6.30;2.37;;;19.30;99.90;20.90;96929.00;;;;5028957;28;20228;-70
2022/05/21 03:54:55;;;;;;;3.97;2.50;;;19.40;99.90;21.00;96920.00;;;;5017642;28;20573;-69
2022/05/21 03:57:45;;;;;;;4.13;2.43;;;19.30;99.90;21.00;96921.00;;;;5028846;28;20558;-69
2022/05/21 04:00:37;;;;;;;6.93;2.47;;;19.40;99.90;20.90;96921.00;;;;5033997;28;20205;-70
2022/05/21 04:03:26;;;;;;;6.70;2.70;;;19.40;99.90;21.10;96919.00;;;;5033433;28;20205;-70
2022/05/21 04:06:15;;;;;;;6.37;2.77;;;19.50;99.90;21.20;96933.00;;;;5033180;28;20193;-69
2022/05/21 04:09:04;;;;;;;3.93;2.10;;;19.50;99.90;21.30;96957.00;;;;5033673;28;20208;-70
2022/05/21 04:11:53;;;;;;;5.57;2.10;;;19.50;99.90;21.30;96959.00;;;;5033322;28;20228;-69
2022/05/21 04:14:43;;;;;;;4.63;2.43;;;19.60;99.90;21.30;96966.00;;;;5033968;28;20197;-69
2022/05/21 04:17:32;;;;;;;3.43;2.20;;;19.60;99.90;21.20;96962.00;;;;5032784;28;20212;-68
2022/05/21 04:20:23;;;;;;;6.80;2.80;;;19.60;99.90;21.10;96967.00;;;;5030792;28;20197;-68
2022/05/21 04:23:12;;;;;;;7.60;2.57;;;19.70;99.90;21.30;96971.00;;;;5025424;28;20202;-68
2022/05/21 04:26:01;;;;;;;7.53;2.40;;;19.70;99.90;21.20;96965.00;;;;5014278;28;20206;-67
2022/05/21 04:28:49;;;;;;;4.57;2.50;;;19.70;99.90;21.10;96974.00;;;;5032778;28;20220;-68
2022/05/21 04:31:40;;;;;;;4.10;2.97;;;19.70;99.90;21.20;96986.00;;;;5028263;28;20229;-67
2022/05/21 04:34:28;;;;;;;2.40;2.00;;;19.70;99.90;21.40;97000.00;;;;5028880;28;20197;-67
2022/05/21 04:37:19;;;;;;;4.50;2.47;;;19.70;99.90;21.50;96987.00;;;;5021953;28;20213;-68
2022/05/21 04:40:12;;;;;;;5.13;1.90;;;19.80;99.90;21.50;96986.00;;;;5018682;28;20212;-68
2022/05/21 04:43:00;;;;;;;2.67;2.20;;;19.80;99.90;21.50;96989.00;;;;5032413;28;20205;-68
2022/05/21 04:45:49;;;;;;;2.83;2.40;;;19.80;99.90;21.40;97000.00;;;;5025357;28;20201;-68
2022/05/21 04:48:41;;;;;;;5.17;2.17;;;19.80;99.90;21.50;96999.00;;;;5031340;28;20251;-68
2022/05/21 04:51:39;;;;;;;3.07;2.73;;;19.80;99.90;21.50;97017.00;;;;5031576;28;20278;-68
2022/05/21 04:54:27;;;;;;;4.73;2.37;;;19.80;99.90;21.40;97032.00;;;;5035792;28;20580;-69
2022/05/21 04:57:16;;;;;;;3.70;2.00;;;19.80;99.90;21.50;97058.00;;;;5028771;28;20201;-68
2022/05/21 05:00:07;;;;;;;2.30;2.03;;;19.80;99.90;21.40;97064.00;;;;5034728;28;20267;-69
2022/05/21 05:02:56;;;;;;;3.73;2.10;;;19.80;99.90;21.50;97069.00;;;;5030417;28;20224;-68
2022/05/21 05:05:47;;;;;;;2.67;2.47;;;19.80;99.90;21.50;97067.00;;;;5032355;28;20220;-68
2022/05/21 05:08:37;;;;;;;2.87;2.60;;;19.80;99.90;21.50;97063.00;;;;5031165;28;20206;-68
2022/05/21 05:11:27;;;;;;;6.07;2.37;;;20.00;99.90;21.50;97059.00;;;;5030929;28;20233;-68
2022/05/21 05:14:16;;;;;;;4.03;2.80;;;19.80;99.90;21.60;97048.00;;;;5032503;28;20210;-68
2022/05/21 05:17:07;;;;;;;2.67;2.00;;;19.90;99.90;21.60;97024.00;;;;5024098;28;20198;-68
2022/05/21 05:19:56;;;;;;;6.33;2.23;;;20.00;99.90;21.60;97001.00;;;;5028089;28;20205;-68
2022/05/21 05:22:46;;;;;;;5.60;2.33;;;20.00;99.90;21.50;96996.00;;;;5024415;28;20232;-68
2022/05/21 05:25:35;;;;;;;3.70;2.57;;;20.00;99.90;21.50;96987.00;;;;5034906;28;20220;-68
2022/05/21 05:28:24;;;;;;;3.23;2.50;;;20.00;99.90;21.30;96992.00;;;;5030288;28;20206;-67
2022/05/21 05:31:14;;;;;;;8.40;2.67;;;20.00;99.90;21.30;97012.00;;;;5023380;28;20229;-68
2022/05/21 05:34:03;;;;;;;2.67;2.00;;;19.90;99.90;21.30;97008.00;;;;5025885;28;20233;-68
2022/05/21 05:36:52;;;;;;;2.27;1.90;;;19.90;99.90;21.50;97007.00;;;;5030068;28;20205;-68
2022/05/21 05:39:42;;;;;;;3.83;2.33;;;19.90;99.90;21.70;97009.00;;;;5016449;28;20198;-67
2022/05/21 05:42:31;;;;;;;3.10;2.40;;;20.00;99.90;21.60;97010.00;;;;5030229;28;20800;-68
2022/05/21 05:45:20;;;;;;;2.50;2.20;;;20.00;99.90;21.90;97020.00;;;;5027132;28;20630;-68
2022/05/21 05:48:09;;;;;;;3.70;2.43;;;20.10;99.90;21.80;97033.00;;;;5026264;28;20205;-67
2022/05/21 05:51:02;;;;;;;3.00;2.03;;;20.20;99.90;22.00;97036.00;;;;5027253;28;20221;-69
2022/05/21 05:53:51;;;;;;;4.20;2.53;;;20.20;99.90;22.00;97042.00;;;;5027072;28;20207;-68
2022/05/21 05:56:44;;;;;;;5.50;2.80;;;20.30;99.90;22.00;97035.00;;;;5020869;28;20796;-68
2022/05/21 05:59:50;;;;;;;4.37;2.83;;;20.30;99.90;22.10;97033.00;;;;5018622;28;20201;-68
2022/05/21 06:05:45;;;;;;;3.93;2.67;;;20.40;99.90;21.90;97041.00;;;;5016756;28;20213;-68
2022/05/21 06:08:35;;;;;;;2.73;2.07;;;20.40;99.90;21.90;97049.00;;;;5020458;28;20201;-68
2022/05/21 06:11:24;;;;;;;3.53;2.30;;;20.40;99.90;21.80;97047.00;;;;5014329;28;20224;-68
2022/05/21 06:14:14;;;;;;;3.43;2.60;;;20.40;99.90;21.90;97048.00;;;;5031313;28;20204;-68
2022/05/21 06:17:03;;;;;;;2.50;2.30;;;20.30;99.90;21.80;97042.00;;;;5033158;28;20256;-68
2022/05/21 06:19:52;;;;;;;3.37;2.40;;;20.40;99.90;21.70;97046.00;;;;5031678;28;20205;-67
2022/05/21 06:22:41;;;;;;;3.73;2.33;;;20.40;99.90;21.90;97057.00;;;;5023937;28;20228;-68
2022/05/21 06:25:33;;;;;;;7.47;2.77;;;20.40;99.90;22.00;97052.00;;;;5028382;28;20197;-68
2022/05/21 06:28:22;;;;;;;2.83;2.50;;;20.40;99.90;22.10;97063.00;;;;5019938;28;20220;-68
2022/05/21 06:31:12;;;;;;;4.93;3.30;;;20.40;99.90;22.20;97065.00;;;;5020974;28;20225;-68
2022/05/21 06:34:01;;;;;;;2.70;2.33;;;20.50;99.90;22.30;97058.00;;;;5017010;28;20211;-68
2022/05/21 06:36:49;;;;;;;2.83;2.20;;;20.60;99.90;22.30;97067.00;;;;5025941;28;20213;-68
2022/05/21 06:39:40;;;;;;;2.67;2.47;;;20.70;99.90;22.00;97071.00;;;;5017381;28;20201;-67
2022/05/21 06:42:29;;;;;;;5.47;2.53;;;20.70;99.90;22.20;97074.00;;;;5032033;28;20220;-67
2022/05/21 06:45:18;;;;;;;2.93;2.20;;;20.70;99.90;22.50;97065.00;;;;5026343;28;20279;-67
2022/05/21 06:48:10;;;;;;;6.50;2.70;;;20.80;99.90;22.50;97062.00;;;;5029566;28;20672;-67
2022/05/21 06:51:01;;;;;;;6.63;2.27;;;20.90;99.90;22.70;97058.00;;;;5022569;28;20230;-68
2022/05/21 06:53:50;;;;;;;3.23;2.40;;;21.00;99.90;22.50;97062.00;;;;5027451;28;20588;-68
2022/05/21 06:56:41;;;;;;;4.37;2.50;;;21.00;99.90;22.70;97073.00;;;;5033340;28;20205;-67
2022/05/21 06:59:30;;;;;;;4.13;2.97;;;21.10;99.90;22.70;97071.00;;;;5036193;28;20665;-68
2022/05/21 07:02:18;;;;;;;4.03;2.60;;;21.20;99.90;23.40;97077.00;;;;5029206;28;20233;-68
2022/05/21 07:08:19;;;;;;;3.90;2.40;;;21.50;99.90;23.60;97074.00;;;;5022066;28;20208;-68
2022/05/21 07:11:07;;;;;;;5.93;2.33;;;21.70;99.90;23.70;97069.00;;;;5040615;28;20224;-68
2022/05/21 07:13:56;;;;;;;5.27;2.33;;;21.80;99.90;23.60;97070.00;;;;5030829;28;20212;-68
2022/05/21 07:16:45;;;;;;;3.40;2.20;;;21.90;99.90;24.20;97065.00;;;;5025868;28;20212;-67
2022/05/21 07:19:36;;;;;;;5.03;1.90;;;22.10;99.90;24.90;97056.00;;;;5030842;28;20224;-68
2022/05/21 07:22:26;;;;;;;4.43;3.13;;;22.40;99.90;25.10;97048.00;;;;5031254;28;20233;-68
2022/05/21 07:25:19;;;;;;;3.73;2.07;;;22.80;99.90;25.20;97070.00;;;;5027720;28;20224;-68
2022/05/21 07:28:09;;;;;;;3.17;2.00;;;23.10;99.90;25.40;97060.00;;;;5026549;28;20213;-68
2022/05/21 07:30:58;;;;;;;3.83;1.73;;;23.30;99.90;25.50;97067.00;;;;5014289;28;20232;-68
2022/05/21 07:33:47;;;;;;;4.47;2.30;;;23.40;99.90;25.30;97064.00;;;;5009901;28;20201;-68
2022/05/21 07:36:35;;;;;;;2.77;2.20;;;23.50;99.90;24.70;97060.00;;;;5016401;28;20209;-68
2022/05/21 07:39:26;;;;;;;2.10;1.53;;;23.40;99.90;24.70;97065.00;;;;5027390;28;20205;-68
2022/05/21 07:42:15;;;;;;;2.10;1.50;;;23.30;99.90;25.20;97067.00;;;;5036035;28;20228;-69
2022/05/21 07:45:05;;;;;;;2.10;1.90;;;23.30;99.90;25.40;97063.00;;;;5027511;28;20645;-68
2022/05/21 07:47:54;;;;;;;5.87;1.87;;;23.40;99.90;25.80;97060.00;;;;5008139;28;20205;-68
2022/05/21 07:50:45;;;;;;;2.07;1.37;;;23.50;99.90;25.90;97056.00;;;;5027717;28;20200;-68
2022/05/21 07:53:37;;;;;;;1.83;1.40;;;23.70;99.90;26.00;97064.00;;;;5031368;28;20479;-68
2022/05/21 07:56:29;;;;;;;2.30;1.73;;;23.90;99.90;26.40;97061.00;;;;5022773;28;20205;-68
2022/05/21 07:59:18;;;;;;;3.63;1.83;;;24.10;99.90;26.30;97039.00;;;;5017647;28;20205;-67
2022/05/21 08:02:11;;;;;;;1.97;1.60;;;24.30;99.90;27.00;97041.00;;;;5024739;28;20232;-69
2022/05/21 08:05:01;;;;;;;2.53;1.80;;;24.60;99.90;27.00;97038.00;;;;5025023;28;20225;-68
2022/05/21 08:07:51;;;;;;;2.77;1.60;;;24.70;99.90;26.70;97054.00;;;;5019534;28;20201;-68
2022/05/21 08:10:43;;;;;;;2.03;1.73;;;24.80;97.00;26.70;97061.00;;;;5023327;28;20210;-67
2022/05/21 08:13:34;;;;;;;6.20;1.77;;;24.70;93.10;27.00;97071.00;;;;5024392;28;21616;-67
2022/05/21 08:16:23;;;;;;;4.90;1.90;;;24.70;93.10;26.90;97053.00;;;;5025813;28;20213;-68
2022/05/21 08:19:12;;;;;;;1.63;1.53;;;24.80;92.00;26.30;97058.00;;;;5023891;28;20673;-68
2022/05/21 08:28:13;;;;;;;2.13;1.77;;;24.80;82.70;26.50;97052.00;;;;5024615;28;20215;-69
2022/05/21 08:31:04;;;;;;;4.40;2.30;;;24.80;77.70;26.90;97056.00;;;;5022763;28;20228;-68
2022/05/21 08:33:53;;;;;;;3.90;2.80;;;24.80;75.90;27.00;97053.00;;;;5022176;28;20221;-67
2022/05/21 08:36:41;;;;;;;2.63;1.93;;;24.90;76.10;26.90;97044.00;;;;5026902;28;20651;-68
2022/05/21 08:39:30;;;;;;;1.97;1.50;;;24.90;77.20;26.60;97042.00;;;;5026522;28;20218;-68
2022/05/21 08:42:30;;;;;;;2.37;2.00;;;24.80;76.40;26.60;97046.00;;;;5026544;28;20225;-68
2022/05/21 08:45:24;;;;;;;2.40;2.03;;;24.70;76.10;26.70;97047.00;;;;5018974;28;20307;-67
2022/05/21 08:48:16;;;;;;;4.17;2.23;;;24.70;76.80;26.80;97046.00;;;;5019382;28;20201;-68
2022/05/21 08:51:14;;;;;;;2.50;2.17;;;24.70;78.40;26.50;97056.00;;;;5027457;28;20222;-68
2022/05/21 08:54:04;;;;;;;2.50;2.07;;;24.70;79.60;26.00;97057.00;;;;5028818;28;20217;-68
2022/05/21 08:56:56;;;;;;;4.93;2.23;;;24.60;85.60;24.60;97055.00;;;;5024328;28;20206;-68
2022/05/21 08:59:52;;;;;;;3.60;2.33;;;24.20;91.70;24.90;97068.00;;;;5025081;28;20208;-67
2022/05/21 09:02:41;;;;;;;3.33;2.83;;;23.90;94.20;25.20;97058.00;;;;5021135;28;20229;-68
2022/05/21 09:05:31;;;;;;;5.43;2.67;;;23.80;95.80;24.90;97064.00;;;;5023908;28;20202;-67
2022/05/21 09:08:32;;;;;;;3.33;2.60;;;23.60;97.30;24.40;97056.00;;;;5027136;28;20743;-67
2022/05/21 09:11:31;;;;;;;3.20;1.93;;;23.50;97.30;24.60;97061.00;;;;5020543;28;20237;-68
2022/05/21 09:14:33;;;;;;;3.30;2.40;;;23.40;99.90;24.40;97060.00;;;;5025401;28;20210;-66
2022/05/21 09:17:26;;;;;;;5.20;2.53;;;23.30;99.90;24.50;97064.00;;;;5028842;28;20205;-68
2022/05/21 09:20:19;;;;;;;3.23;1.93;;;23.30;99.90;24.30;97046.00;;;;5020297;28;20589;-66
2022/05/21 09:23:11;;;;;;;3.90;2.57;;;23.20;99.90;24.20;97057.00;;;;5025597;28;20203;-66
2022/05/21 09:26:08;;;;;;;4.63;1.80;;;23.20;99.90;24.50;97047.00;;;;5030776;28;20190;-67
2022/05/21 09:29:14;;;;;;;2.30;2.10;;;23.30;99.90;24.70;97059.00;;;;5024586;28;20683;-67
2022/05/21 09:32:19;;;;;;;2.07;1.83;;;23.30;99.90;24.90;97038.00;;;;5026434;28;20236;-67
2022/05/21 09:35:12;;;;;;;3.97;2.73;;;23.40;99.90;25.00;97018.00;;;;5036899;28;20714;-68
2022/05/21 09:38:16;;;;;;;4.57;3.90;;;23.60;99.70;25.20;97018.00;;;;5026573;28;20221;-68
2022/05/21 09:41:18;;;;;;;4.47;2.97;;;23.80;99.30;25.40;97056.00;;;;5022142;28;20276;-66
2022/05/21 09:47:25;;;;;;;3.83;2.53;;;23.90;97.30;25.60;97043.00;;;;5024431;28;20582;-66
2022/05/21 09:50:14;;;;;;;3.43;2.60;;;24.20;97.90;25.70;97030.00;;;;5021442;28;20213;-68
2022/05/21 09:53:26;;;;;;;3.20;2.70;;;24.20;98.90;26.20;97028.00;;;;5020159;28;20228;-67
2022/05/21 09:56:21;;;;;;;5.70;2.33;;;24.60;98.00;26.20;97041.00;;;;5023413;28;20208;-68
2022/05/21 09:59:14;;;;;;;5.00;3.07;;;24.70;96.70;26.10;97042.00;;;;5023960;28;20206;-67
2022/05/21 10:02:19;;;;;;;4.73;2.83;;;24.60;96.00;25.80;97044.00;;;;5026321;28;20221;-68
2022/05/21 10:05:12;;;;;;;3.70;2.30;;;24.50;95.60;25.30;97049.00;;;;5019285;28;20201;-67
2022/05/21 10:11:27;;;;;;;3.23;2.40;;;24.30;96.60;25.30;97046.00;;;;5024779;28;20240;-68
2022/05/21 10:14:21;;;;;;;3.40;2.20;;;24.10;97.60;25.20;97051.00;;;;5025926;28;20228;-67
2022/05/21 10:17:22;;;;;;;2.63;2.03;;;24.00;97.30;25.30;97049.00;;;;5026791;28;20909;-68
2022/05/21 10:20:18;;;;;;;4.20;2.43;;;24.00;97.10;25.50;97053.00;;;;5022637;28;20212;-68
2022/05/21 10:23:27;;;;;;;4.77;2.80;;;23.90;96.70;25.00;97030.00;;;;5025827;28;20232;-67
2022/05/21 10:26:39;;;;;;;4.97;3.67;;;23.90;97.00;25.00;97035.00;;;;5027364;28;20224;-68
2022/05/21 10:30:08;;;;;;;5.83;2.90;;;23.90;97.70;25.40;97028.00;;;;5022163;28;20213;-68
2022/05/21 10:33:25;;;;;;;5.53;2.60;;;24.00;97.20;25.80;97033.00;;;;5020478;28;20233;-68
2022/05/21 10:36:28;;;;;;;4.27;3.63;;;24.00;97.20;26.10;97033.00;;;;5026612;28;20586;-68
2022/05/21 10:39:34;;;;;;;4.30;2.70;;;24.30;96.70;26.30;97019.00;;;;5024769;28;20205;-68
2022/05/21 10:42:39;;;;;;;4.63;2.63;;;24.40;96.50;26.80;97026.00;;;;5018000;28;20233;-67
2022/05/21 10:45:35;;;;;;;5.43;3.10;;;24.60;96.10;26.50;97026.00;;;;5021993;28;20233;-67
2022/05/21 10:48:57;;;;;;;3.50;2.77;;;24.70;95.60;26.30;96996.00;;;;5027550;28;20205;-67
2022/05/21 10:51:56;;;;;;;4.67;2.60;;;24.80;95.40;26.80;97017.00;;;;5025795;28;20228;-67
2022/05/21 10:55:04;;;;;;;3.30;2.53;;;25.00;94.60;26.80;97023.00;;;;5020275;28;20614;-68
2022/05/21 10:58:14;;;;;;;6.00;3.37;;;25.00;95.00;26.90;97013.00;;;;5028137;28;20692;-67
2022/05/21 11:01:15;;;;;;;4.93;2.97;;;25.10;95.20;26.80;96968.00;;;;5030670;28;20232;-68
2022/05/21 11:04:37;;;;;;;2.87;2.47;;;25.10;94.50;28.00;97003.00;;;;5022506;28;20229;-68
2022/05/21 11:07:43;;;;;;;3.40;2.33;;;25.60;93.60;28.10;97009.00;;;;5022804;28;20212;-68
2022/05/21 11:10:38;;;;;;;3.43;3.13;;;26.00;93.10;28.00;97010.00;;;;5019247;28;20199;-68
2022/05/21 11:13:36;;;;;;;3.60;2.00;;;26.00;92.00;28.20;96989.00;;;;5021742;28;20807;-67
2022/05/21 11:16:31;;;;;;;3.17;2.07;;;26.10;90.70;28.90;96993.00;;;;5019782;28;20212;-67
2022/05/21 11:19:26;;;;;;;4.47;2.30;;;26.40;91.20;28.60;96971.00;;;;5021341;28;20223;-68
2022/05/21 11:22:22;;;;;;;2.70;2.07;;;26.60;88.60;27.60;97004.00;;;;5018994;28;20222;-69
2022/05/21 11:25:18;;;;;;;2.87;2.20;;;26.50;89.40;27.50;97000.00;;;;5022776;28;20202;-68
2022/05/21 11:28:27;;;;;;;3.40;2.40;;;26.30;84.30;27.30;96991.00;;;;5018283;28;20210;-68
2022/05/21 11:37:44;;;;;;;4.13;2.70;;;26.00;85.40;27.20;96986.00;;;;5018289;28;20580;-67
2022/05/21 11:47:50;;;;;;;4.47;2.27;;;26.00;81.20;28.40;96988.00;;;;5022398;28;20204;-68
2022/05/21 11:50:40;;;;;;;3.00;1.97;;;26.20;84.20;28.40;96987.00;;;;5021199;28;20225;-68
2022/05/21 11:53:38;;;;;;;2.50;1.90;;;26.30;87.10;28.00;97000.00;;;;5022862;28;20680;-68
2022/05/21 11:57:01;;;;;;;2.80;2.23;;;26.30;85.10;27.70;96996.00;;;;5024249;28;20712;-69
2022/05/21 11:59:53;;;;;;;2.70;1.80;;;26.20;84.80;27.60;96992.00;;;;5025222;28;20216;-68
2022/05/21 12:03:17;;;;;;;2.77;1.93;;;26.00;85.10;27.40;96992.00;;;;5022875;28;20255;-68
2022/05/21 12:06:31;;;;;;;2.13;1.80;;;25.90;87.10;27.30;96992.00;;;;5021561;28;20214;-67
2022/05/21 12:09:26;;;;;;;2.70;1.60;;;25.80;88.50;27.30;96991.00;;;;5017380;28;20203;-69
2022/05/21 12:12:23;;;;;;;3.03;1.83;;;25.60;90.10;26.70;96989.00;;;;5017542;28;20227;-68
2022/05/21 12:15:18;;;;;;;1.73;1.53;;;25.50;79.10;27.00;96980.00;;;;5014704;28;20247;-68
2022/05/21 12:18:34;;;;;;;2.53;1.70;;;25.40;78.80;26.90;96976.00;;;;5018212;28;20224;-69
2022/05/21 12:22:02;;;;;;;4.27;2.50;;;25.30;84.20;26.40;96986.00;;;;5024333;28;20228;-68
2022/05/21 12:24:50;;;;;;;2.27;1.70;;;25.20;82.50;26.80;96973.00;;;;5030088;28;20216;-68
2022/05/21 12:27:52;;;;;;;1.73;1.60;;;25.10;83.70;27.10;96967.00;;;;5025341;28;20205;-67
2022/05/21 12:30:41;;;;;;;2.40;2.20;;;25.10;88.60;27.30;96955.00;;;;5023372;28;20211;-68
2022/05/21 12:33:41;;;;;;;3.80;2.37;;;25.30;90.90;27.80;96962.00;;;;5030510;28;20221;-68
2022/05/21 12:36:46;;;;;;;3.37;1.70;;;25.50;89.70;28.00;96972.00;;;;5025700;28;20202;-68
2022/05/21 12:39:46;;;;;;;2.73;1.60;;;25.70;87.80;27.10;96970.00;;;;5019811;28;20210;-68
2022/05/21 12:42:40;;;;;;;3.10;2.80;;;25.80;79.20;27.10;96965.00;;;;5025748;28;20222;-69
2022/05/21 12:45:40;;;;;;;2.30;1.87;;;25.60;83.20;27.10;96953.00;;;;5030006;28;20206;-67
2022/05/21 12:48:33;;;;;;;3.20;1.90;;;25.60;69.20;27.60;96942.00;;;;5033232;28;20250;-68
2022/05/21 12:51:35;;;;;;;2.50;2.10;;;25.70;69.80;27.80;96943.00;;;;5029109;28;20237;-68
2022/05/21 12:54:28;;;;;;;2.50;1.70;;;25.80;71.60;27.50;96955.00;;;;5032715;28;20225;-68
2022/05/21 12:57:26;;;;;;;4.53;1.70;;;25.80;74.80;27.80;96951.00;;;;5019226;28;20615;-68
2022/05/21 13:00:18;;;;;;;4.67;2.07;;;25.70;77.10;27.50;96954.00;;;;5019667;28;20218;-69
2022/05/21 13:03:09;;;;;;;5.93;2.10;;;25.80;72.30;27.20;96945.00;;;;5030765;28;20211;-69
2022/05/21 13:06:01;;;;;;;3.87;1.97;;;25.70;66.70;27.60;96944.00;;;;5023594;28;20199;-67
2022/05/21 13:08:52;;;;;;;1.93;1.77;;;25.60;70.60;27.50;96944.00;;;;5018285;28;20217;-67
2022/05/21 13:11:41;;;;;;;2.23;2.03;;;25.60;78.40;27.20;96948.00;;;;5024144;28;20234;-69
2022/05/21 13:14:38;;;;;;;2.87;1.97;;;25.60;78.30;27.00;96946.00;;;;5024240;28;20608;-69
2022/05/21 13:17:37;;;;;;;4.83;1.93;;;25.40;78.20;27.40;96924.00;;;;5037801;28;20204;-67
2022/05/21 13:20:39;;;;;;;4.73;2.30;;;25.40;79.60;26.90;96922.00;;;;5033534;28;20205;-68
2022/05/21 13:24:02;;;;;;;1.93;1.70;;;25.40;66.80;27.00;96931.00;;;;5030753;28;20203;-68
2022/05/21 13:27:10;;;;;;;3.93;1.70;;;25.40;64.80;26.90;96932.00;;;;5021365;28;20208;-69
2022/05/21 13:29:59;;;;;;;3.20;2.13;;;25.40;64.00;27.20;96934.00;;;;5021133;28;20218;-69
2022/05/21 13:32:55;;;;;;;2.27;2.07;;;25.40;66.00;27.10;96930.00;;;;5028971;28;20246;-68
2022/05/21 13:35:45;;;;;;;2.40;2.00;;;25.40;66.60;27.50;96916.00;;;;5022561;28;20727;-68